createdAt,value
2017-11-07T00:00:49.581Z,73.30
2017-11-07T00:03:16.341Z,73.40
2017-11-07T00:05:43.084Z,72.90
2017-11-07T00:08:10.617Z,73.70
2017-11-07T00:10:37.357Z,73.60
2017-11-07T00:13:04.089Z,74.40
2017-11-07T00:15:30.835Z,74.90
2017-11-07T00:17:57.584Z,74.50
2017-11-07T00:20:24.336Z,74.80
2017-11-07T00:22:51.141Z,74.40
2017-11-07T00:25:17.892Z,74.40
2017-11-07T00:27:44.654Z,74.40
2017-11-07T00:30:12.156Z,74.50
2017-11-07T00:32:38.888Z,74.40
2017-11-07T00:35:05.641Z,74.20
2017-11-07T00:37:32.388Z,74.20
2017-11-07T00:39:59.135Z,74.00
2017-11-07T00:42:25.873Z,74.30
2017-11-07T00:44:52.643Z,74.20
2017-11-07T00:47:20.332Z,74.10
2017-11-07T00:49:47.098Z,74.00
2017-11-07T00:52:13.823Z,74.60
2017-11-07T00:54:40.581Z,74.20
2017-11-07T00:57:07.331Z,74.50
2017-11-07T00:59:34.109Z,74.40
2017-11-07T01:02:00.944Z,75.00
2017-11-07T01:04:27.694Z,75.00
2017-11-07T01:06:55.208Z,74.60
2017-11-07T01:09:21.979Z,74.50
2017-11-07T01:11:48.701Z,74.70
2017-11-07T01:14:15.456Z,75.60
2017-11-07T01:16:42.965Z,78.00
2017-11-07T01:19:09.718Z,76.90
2017-11-07T01:21:36.449Z,77.60
2017-11-07T01:24:03.200Z,77.50
2017-11-07T01:26:29.963Z,77.30
2017-11-07T01:28:56.704Z,77.20
2017-11-07T01:31:23.469Z,76.80
2017-11-07T01:33:50.233Z,77.30
2017-11-07T01:36:16.979Z,78.30
2017-11-07T01:38:43.736Z,78.50
2017-11-07T01:41:10.476Z,78.90
2017-11-07T01:43:37.233Z,79.40
2017-11-07T01:46:03.978Z,79.60
2017-11-07T01:48:31.044Z,79.40
2017-11-07T01:50:58.548Z,78.80
2017-11-07T01:53:25.399Z,78.70
2017-11-07T01:55:52.173Z,79.40
2017-11-07T01:58:19.667Z,81.00
2017-11-07T02:00:46.404Z,80.50
2017-11-07T02:03:13.133Z,81.20
2017-11-07T02:05:39.890Z,80.70
2017-11-07T02:08:06.646Z,79.70
2017-11-07T02:10:33.369Z,78.80
2017-11-07T02:13:00.096Z,77.70
2017-11-07T02:15:26.882Z,77.30
2017-11-07T02:17:53.616Z,76.40
2017-11-07T02:20:20.397Z,76.70
2017-11-07T02:22:47.133Z,76.10
2017-11-07T02:25:14.629Z,75.80
2017-11-07T02:27:41.372Z,75.70
2017-11-07T02:30:08.107Z,75.60
2017-11-07T02:32:34.851Z,75.40
2017-11-07T02:35:01.616Z,75.10
2017-11-07T02:37:28.367Z,74.90
2017-11-07T02:39:55.115Z,75.50
2017-11-07T02:42:22.621Z,75.50
2017-11-07T02:44:49.381Z,75.40
2017-11-07T02:47:16.106Z,75.70
2017-11-07T02:49:42.884Z,76.10
2017-11-07T02:52:09.609Z,75.80
2017-11-07T02:54:36.366Z,75.10
2017-11-07T02:57:03.888Z,74.90
2017-11-07T02:59:30.628Z,74.80
2017-11-07T03:01:57.394Z,74.40
2017-11-07T03:04:24.918Z,75.10
2017-11-07T03:06:51.683Z,74.80
2017-11-07T03:09:18.430Z,75.20
2017-11-07T03:11:45.155Z,74.90
2017-11-07T03:14:11.905Z,76.40
2017-11-07T03:16:39.438Z,76.40
2017-11-07T03:19:06.223Z,76.00
2017-11-07T03:21:32.972Z,76.10
2017-11-07T03:23:59.701Z,76.00
2017-11-07T03:26:26.449Z,75.90
2017-11-07T03:28:53.203Z,76.00
2017-11-07T03:31:19.932Z,75.90
2017-11-07T03:33:46.664Z,76.00
2017-11-07T03:36:13.423Z,75.70
2017-11-07T03:38:40.160Z,75.30
2017-11-07T03:41:07.085Z,75.60
2017-11-07T03:43:33.850Z,75.70
2017-11-07T03:46:00.594Z,75.70
2017-11-07T03:48:27.330Z,75.90
2017-11-07T03:50:54.075Z,76.10
2017-11-07T03:53:20.808Z,76.10
2017-11-07T03:55:47.726Z,75.60
2017-11-07T03:58:14.452Z,75.60
2017-11-07T04:00:41.198Z,76.90
2017-11-07T04:03:07.948Z,75.40
2017-11-07T04:05:34.684Z,75.00
2017-11-07T04:08:01.432Z,74.60
2017-11-07T04:10:28.252Z,74.80
2017-11-07T04:12:55.753Z,75.40
2017-11-07T04:15:22.488Z,75.20
2017-11-07T04:17:49.249Z,75.10
2017-11-07T04:20:15.977Z,74.80
2017-11-07T04:22:42.879Z,74.90
2017-11-07T04:25:09.639Z,75.10
2017-11-07T04:27:36.493Z,75.40
2017-11-07T04:30:03.250Z,75.40
2017-11-07T04:32:29.972Z,75.40
2017-11-07T04:34:56.725Z,75.40
2017-11-07T04:37:23.492Z,75.40
2017-11-07T04:39:51.004Z,75.30
2017-11-07T04:42:17.754Z,75.10
2017-11-07T04:44:44.485Z,75.40
2017-11-07T04:47:11.232Z,75.30
2017-11-07T04:49:38.009Z,75.70
2017-11-07T04:52:05.679Z,76.40
2017-11-07T04:54:32.451Z,76.40
2017-11-07T04:56:59.188Z,76.50
2017-11-07T04:59:25.939Z,76.80
2017-11-07T05:01:52.676Z,76.60
2017-11-07T05:04:19.436Z,76.20
2017-11-07T05:06:46.194Z,76.20
2017-11-07T05:09:13.865Z,75.90
2017-11-07T05:11:41.393Z,75.80
2017-11-07T05:14:08.118Z,75.60
2017-11-07T05:16:34.856Z,75.90
2017-11-07T05:19:01.605Z,76.40
2017-11-07T05:21:28.440Z,76.40
2017-11-07T05:23:55.180Z,76.40
2017-11-07T05:26:21.992Z,75.90
2017-11-07T05:28:48.728Z,75.70
2017-11-07T05:31:15.492Z,75.70
2017-11-07T05:33:42.236Z,76.00
2017-11-07T05:36:09.000Z,76.10
2017-11-07T05:38:36.526Z,76.50
2017-11-07T05:41:03.259Z,76.50
2017-11-07T05:43:30.004Z,76.70
2017-11-07T05:45:56.741Z,76.80
2017-11-07T05:48:23.493Z,76.80
2017-11-07T05:50:51.012Z,76.70
2017-11-07T05:53:17.835Z,76.70
2017-11-07T05:55:44.548Z,77.00
2017-11-07T05:58:12.091Z,77.00
2017-11-07T06:00:38.829Z,76.80
2017-11-07T06:03:05.564Z,76.60
2017-11-07T06:05:32.324Z,77.00
2017-11-07T06:07:59.827Z,76.90
2017-11-07T06:10:26.594Z,76.80
2017-11-07T06:12:53.362Z,76.80
2017-11-07T06:15:20.133Z,77.00
2017-11-07T06:17:46.886Z,77.10
2017-11-07T06:20:13.624Z,77.10
2017-11-07T06:22:40.366Z,77.00
2017-11-07T06:25:07.134Z,78.00
2017-11-07T06:27:33.883Z,77.90
2017-11-07T06:30:00.624Z,77.20
2017-11-07T06:32:27.416Z,77.10
2017-11-07T06:34:54.177Z,77.10
2017-11-07T06:37:20.923Z,77.90
2017-11-07T06:39:47.653Z,77.50
2017-11-07T06:42:14.420Z,76.90
2017-11-07T06:44:41.170Z,76.30
2017-11-07T06:47:08.864Z,75.90
2017-11-07T06:49:35.657Z,75.90
2017-11-07T06:52:02.359Z,75.80
2017-11-07T06:54:29.120Z,76.10
2017-11-07T06:56:55.856Z,76.10
2017-11-07T06:59:22.623Z,76.10
2017-11-07T07:01:49.384Z,76.00
2017-11-07T07:04:16.342Z,76.10
2017-11-07T07:06:43.108Z,76.30
2017-11-07T07:09:09.846Z,76.10
2017-11-07T07:11:36.613Z,75.90
2017-11-07T07:14:03.352Z,75.70
2017-11-07T07:16:30.127Z,75.70
2017-11-07T07:18:56.864Z,75.70
2017-11-07T07:21:23.610Z,75.90
2017-11-07T07:23:50.341Z,76.20
2017-11-07T07:26:17.116Z,76.50
2017-11-07T07:28:43.855Z,76.80
2017-11-07T07:31:10.600Z,77.00
2017-11-07T07:33:37.392Z,77.30
2017-11-07T07:36:04.932Z,77.80
2017-11-07T07:38:31.673Z,77.70
2017-11-07T07:40:59.188Z,78.20
2017-11-07T07:43:25.944Z,78.10
2017-11-07T07:45:52.684Z,78.40
2017-11-07T07:48:20.186Z,79.50
2017-11-07T07:50:46.937Z,78.60
2017-11-07T07:53:13.667Z,78.80
2017-11-07T07:55:40.440Z,78.90
2017-11-07T07:58:07.169Z,79.00
2017-11-07T08:00:33.929Z,78.80
2017-11-07T08:03:00.686Z,78.90
2017-11-07T08:05:27.433Z,79.00
2017-11-07T08:07:54.161Z,78.90
2017-11-07T08:10:20.918Z,78.80
2017-11-07T08:12:47.646Z,78.60
2017-11-07T08:15:14.409Z,78.70
2017-11-07T08:17:41.931Z,78.50
2017-11-07T08:20:08.816Z,78.40
2017-11-07T08:22:36.423Z,78.10
2017-11-07T08:25:03.161Z,77.90
2017-11-07T08:27:29.920Z,77.80
2017-11-07T08:29:56.672Z,77.40
2017-11-07T08:32:24.183Z,77.30
2017-11-07T08:34:50.930Z,77.00
2017-11-07T08:37:17.698Z,76.80
2017-11-07T08:39:44.491Z,77.30
2017-11-07T08:42:11.223Z,76.50
2017-11-07T08:44:37.956Z,76.50
2017-11-07T08:47:04.711Z,76.50
2017-11-07T08:49:31.524Z,76.40
2017-11-07T08:51:58.252Z,76.40
2017-11-07T08:54:25.756Z,76.00
2017-11-07T08:56:52.545Z,75.80
2017-11-07T08:59:19.264Z,75.60
2017-11-07T09:01:46.161Z,75.20
2017-11-07T09:04:12.876Z,75.10
2017-11-07T09:06:41.896Z,75.30
2017-11-07T09:09:08.663Z,75.30
2017-11-07T09:11:35.437Z,74.80
2017-11-07T09:14:03.048Z,74.40
2017-11-07T09:16:29.797Z,74.40
2017-11-07T09:18:56.586Z,74.40
2017-11-07T09:21:23.330Z,74.50
2017-11-07T09:23:50.824Z,74.80
2017-11-07T09:26:17.596Z,74.60
2017-11-07T09:28:44.325Z,74.50
2017-11-07T09:31:13.016Z,74.70
2017-11-07T09:33:40.533Z,75.30
2017-11-07T09:36:07.341Z,75.10
2017-11-07T09:38:34.080Z,75.10
2017-11-07T09:41:00.812Z,74.70
2017-11-07T09:43:28.344Z,74.30
2017-11-07T09:45:55.071Z,74.20
2017-11-07T09:48:21.856Z,73.80
2017-11-07T09:50:49.372Z,74.20
2017-11-07T09:53:16.097Z,74.20
2017-11-07T09:55:42.840Z,74.30
2017-11-07T09:58:09.593Z,74.10
2017-11-07T10:00:36.388Z,73.90
2017-11-07T10:03:03.140Z,73.30
2017-11-07T10:05:29.884Z,72.90
2017-11-07T10:07:56.623Z,72.60
2017-11-07T10:10:23.358Z,72.50
2017-11-07T10:12:50.116Z,72.20
2017-11-07T10:15:16.872Z,72.80
2017-11-07T10:17:43.605Z,73.30
2017-11-07T10:20:12.271Z,72.50
2017-11-07T10:22:39.005Z,72.40
2017-11-07T10:25:05.749Z,72.60
2017-11-07T10:27:32.504Z,72.80
2017-11-07T10:29:59.228Z,72.30
2017-11-07T10:32:25.946Z,72.50
2017-11-07T10:34:56.459Z,72.80
2017-11-07T10:37:23.209Z,72.60
2017-11-07T10:39:49.941Z,72.20
2017-11-07T10:42:16.704Z,72.50
2017-11-07T10:44:43.434Z,72.20
2017-11-07T10:47:10.206Z,72.40
2017-11-07T10:49:37.222Z,72.00
2017-11-07T10:52:03.980Z,71.70
2017-11-07T10:54:30.728Z,72.00
2017-11-07T10:56:57.489Z,72.00
2017-11-07T10:59:24.999Z,71.30
2017-11-07T11:01:51.763Z,70.80
2017-11-07T11:04:18.488Z,71.40
2017-11-07T11:06:45.222Z,71.50
2017-11-07T11:09:11.990Z,71.80
2017-11-07T11:11:39.612Z,71.20
2017-11-07T11:14:06.337Z,71.20
2017-11-07T11:16:33.098Z,70.30
2017-11-07T11:18:59.868Z,70.70
2017-11-07T11:21:27.393Z,70.40
2017-11-07T11:23:54.127Z,70.30
2017-11-07T11:26:20.889Z,70.10
2017-11-07T11:28:47.617Z,70.00
2017-11-07T11:31:14.402Z,69.60
2017-11-07T11:33:41.162Z,69.40
2017-11-07T11:36:07.978Z,69.30
2017-11-07T11:38:34.724Z,69.30
2017-11-07T11:41:01.459Z,69.10
2017-11-07T11:43:28.968Z,68.70
2017-11-07T11:45:55.718Z,68.60
2017-11-07T11:48:22.445Z,68.60
2017-11-07T11:50:49.200Z,68.40
2017-11-07T11:53:15.933Z,67.90
2017-11-07T11:55:42.716Z,67.80
2017-11-07T11:58:09.444Z,67.70
2017-11-07T12:00:36.957Z,68.30
2017-11-07T12:03:03.700Z,68.20
2017-11-07T12:05:30.489Z,67.10
2017-11-07T12:07:57.962Z,67.30
2017-11-07T12:10:24.721Z,67.20
2017-11-07T12:12:51.445Z,67.00
2017-11-07T12:15:18.191Z,65.90
2017-11-07T12:17:44.965Z,65.70
2017-11-07T12:20:11.857Z,65.60
2017-11-07T12:22:38.611Z,64.80
2017-11-07T12:25:05.361Z,62.60
2017-11-07T12:27:32.124Z,62.20
2017-11-07T12:29:59.620Z,61.00
2017-11-07T12:32:26.366Z,61.00
2017-11-07T12:34:53.123Z,60.60
2017-11-07T12:37:19.875Z,60.90
2017-11-07T12:39:46.619Z,60.50
2017-11-07T12:42:13.374Z,60.30
2017-11-07T12:44:40.141Z,60.20
2017-11-07T12:47:06.872Z,60.20
2017-11-07T12:49:34.394Z,59.30
2017-11-07T12:52:01.135Z,59.20
2017-11-07T12:54:27.941Z,57.60
2017-11-07T12:56:54.677Z,56.30
2017-11-07T12:59:21.442Z,56.80
2017-11-07T13:01:48.212Z,56.60
2017-11-07T13:04:14.971Z,56.50
2017-11-07T13:06:42.521Z,56.70
2017-11-07T13:09:09.245Z,56.60
2017-11-07T13:11:35.985Z,55.90
2017-11-07T13:14:02.753Z,54.90
2017-11-07T13:16:30.255Z,54.70
2017-11-07T13:18:57.008Z,54.70
2017-11-07T13:21:23.750Z,52.60
2017-11-07T13:23:50.512Z,52.20
2017-11-07T13:26:18.014Z,52.50
2017-11-07T13:28:44.798Z,52.50
2017-11-07T13:31:11.528Z,52.20
2017-11-07T13:33:38.296Z,52.50
2017-11-07T13:36:05.806Z,53.20
2017-11-07T13:38:32.566Z,53.10
2017-11-07T13:40:59.393Z,53.30
2017-11-07T13:43:26.134Z,53.20
2017-11-07T13:45:52.944Z,53.50
2017-11-07T13:48:19.705Z,53.50
2017-11-07T13:50:46.451Z,53.70
2017-11-07T13:53:13.261Z,53.60
2017-11-07T13:55:40.735Z,54.30
2017-11-07T13:58:07.543Z,54.20
2017-11-07T14:00:35.037Z,54.80
2017-11-07T14:03:01.765Z,54.70
2017-11-07T14:05:28.514Z,55.10
2017-11-07T14:07:55.287Z,55.10
2017-11-07T14:10:22.976Z,54.70
2017-11-07T14:12:49.733Z,54.70
2017-11-07T14:15:16.473Z,55.10
2017-11-07T14:17:43.245Z,57.90
2017-11-07T14:20:09.990Z,58.80
2017-11-07T14:22:36.757Z,59.20
2017-11-07T14:25:06.203Z,57.90
2017-11-07T14:27:32.946Z,57.90
2017-11-07T14:29:59.759Z,58.00
2017-11-07T14:32:27.309Z,58.60
2017-11-07T14:34:54.805Z,59.10
2017-11-07T14:37:21.547Z,58.60
2017-11-07T14:39:48.317Z,59.00
2017-11-07T14:42:15.834Z,60.30
2017-11-07T14:44:42.555Z,60.20
2017-11-07T14:47:09.309Z,60.20
2017-11-07T14:49:36.072Z,60.80
2017-11-07T14:52:02.869Z,60.90
2017-11-07T14:54:29.601Z,61.00
2017-11-07T14:56:56.369Z,61.70
2017-11-07T14:59:23.128Z,62.20
2017-11-07T15:01:49.871Z,62.30
2017-11-07T15:04:16.613Z,62.60
2017-11-07T15:06:43.344Z,62.80
2017-11-07T15:09:10.237Z,63.20
2017-11-07T15:11:37.799Z,63.90
2017-11-07T15:14:05.340Z,64.00
2017-11-07T15:16:32.884Z,63.90
2017-11-07T15:19:01.239Z,64.20
2017-11-07T15:21:27.989Z,64.10
2017-11-07T15:23:54.736Z,64.60
2017-11-07T15:26:22.331Z,65.90
2017-11-07T15:28:49.073Z,65.70
2017-11-07T15:31:15.821Z,65.90
2017-11-07T15:33:42.559Z,65.90
2017-11-07T15:36:09.421Z,66.50
2017-11-07T15:38:36.156Z,66.60
2017-11-07T15:41:02.904Z,66.30
2017-11-07T15:43:29.662Z,66.00
2017-11-07T15:45:56.408Z,66.00
2017-11-07T15:48:23.175Z,66.80
2017-11-07T15:50:50.664Z,67.00
2017-11-07T15:53:17.438Z,67.00
2017-11-07T15:55:44.184Z,66.90
2017-11-07T15:58:11.695Z,66.70
2017-11-07T16:00:38.466Z,67.30
2017-11-07T16:03:05.226Z,67.60
2017-11-07T16:05:32.751Z,68.30
2017-11-07T16:07:59.479Z,68.30
2017-11-07T16:10:26.225Z,68.30
2017-11-07T16:12:52.984Z,68.80
2017-11-07T16:15:19.739Z,68.50
2017-11-07T16:17:47.250Z,68.60
2017-11-07T16:20:13.988Z,68.60
2017-11-07T16:22:40.762Z,69.00
2017-11-07T16:25:07.493Z,69.20
2017-11-07T16:27:34.278Z,69.60
2017-11-07T16:30:00.998Z,69.50
2017-11-07T16:32:28.557Z,69.70
2017-11-07T16:34:56.061Z,69.80
2017-11-07T16:37:22.816Z,69.60
2017-11-07T16:39:49.552Z,70.20
2017-11-07T16:42:16.292Z,70.40
2017-11-07T16:44:43.043Z,70.30
2017-11-07T16:47:09.841Z,70.30
2017-11-07T16:49:36.580Z,70.30
2017-11-07T16:52:03.373Z,70.00
2017-11-07T16:54:31.023Z,70.20
2017-11-07T16:56:57.808Z,70.90
2017-11-07T16:59:26.263Z,69.80
2017-11-07T17:01:53.825Z,70.40
2017-11-07T17:04:21.335Z,70.40
2017-11-07T17:06:48.072Z,70.40
2017-11-07T17:09:14.822Z,70.20
2017-11-07T17:11:41.568Z,70.30
2017-11-07T17:14:08.454Z,70.30
2017-11-07T17:16:35.218Z,70.30
2017-11-07T17:19:01.978Z,70.10
2017-11-07T17:21:28.732Z,70.20
2017-11-07T17:23:55.486Z,70.00
2017-11-07T17:26:22.987Z,69.80
2017-11-07T17:28:49.768Z,70.00
2017-11-07T17:31:16.512Z,69.60
2017-11-07T17:33:43.302Z,69.50
2017-11-07T17:36:10.049Z,69.50
2017-11-07T17:38:36.801Z,69.60
2017-11-07T17:41:03.616Z,69.80
2017-11-07T17:43:30.365Z,69.70
2017-11-07T17:45:57.120Z,69.90
2017-11-07T17:48:23.878Z,70.30
2017-11-07T17:50:50.628Z,71.20
2017-11-07T17:53:17.383Z,70.60
2017-11-07T17:55:44.195Z,70.60
2017-11-07T17:58:10.946Z,70.60
2017-11-07T18:00:37.687Z,70.60
2017-11-07T18:03:04.429Z,70.70
2017-11-07T18:05:31.933Z,70.50
2017-11-07T18:07:58.697Z,70.40
2017-11-07T18:10:25.440Z,70.60
2017-11-07T18:12:52.223Z,70.60
2017-11-07T18:15:19.726Z,70.80
2017-11-07T18:17:46.466Z,70.60
2017-11-07T18:20:13.190Z,70.90
2017-11-07T18:22:39.956Z,70.90
2017-11-07T18:25:06.711Z,70.90
2017-11-07T18:27:34.957Z,71.20
2017-11-07T18:30:01.715Z,71.20
2017-11-07T18:32:28.524Z,71.40
2017-11-07T18:34:55.286Z,71.40
2017-11-07T18:37:22.026Z,71.70
2017-11-07T18:39:48.783Z,71.80
2017-11-07T18:42:16.334Z,72.70
2017-11-07T18:44:43.093Z,72.10
2017-11-07T18:47:09.853Z,72.30
2017-11-07T18:49:36.591Z,72.30
2017-11-07T18:52:03.345Z,72.50
2017-11-07T18:54:30.084Z,72.60
2017-11-07T18:56:56.856Z,72.60
2017-11-07T18:59:23.600Z,72.70
2017-11-07T19:01:50.490Z,72.80
2017-11-07T19:04:18.161Z,72.80
2017-11-07T19:06:44.891Z,73.70
2017-11-07T19:09:11.656Z,72.90
2017-11-07T19:11:38.417Z,72.80
2017-11-07T19:14:05.195Z,72.90
2017-11-07T19:16:32.662Z,72.80
2017-11-07T19:19:00.174Z,72.50
2017-11-07T19:21:26.951Z,72.50
2017-11-07T19:23:53.743Z,72.50
2017-11-07T19:26:20.518Z,72.30
2017-11-07T19:28:48.077Z,72.10
2017-11-07T19:31:15.701Z,71.90
2017-11-07T19:33:42.440Z,71.70
2017-11-07T19:36:09.193Z,71.30
2017-11-07T19:38:35.945Z,71.30
2017-11-07T19:41:02.761Z,71.30
2017-11-07T19:43:29.530Z,71.50
2017-11-07T19:45:57.053Z,71.50
2017-11-07T19:48:24.060Z,71.40
2017-11-07T19:50:51.558Z,71.50
2017-11-07T19:53:18.328Z,71.50
2017-11-07T19:55:45.089Z,71.40
2017-11-07T19:58:11.883Z,71.40
2017-11-07T20:00:38.677Z,71.50
2017-11-07T20:03:06.181Z,71.40
2017-11-07T20:05:32.929Z,71.30
2017-11-07T20:07:59.700Z,71.30
2017-11-07T20:10:26.444Z,71.20
2017-11-07T20:12:53.190Z,71.20
2017-11-07T20:15:19.966Z,72.00
2017-11-07T20:17:46.723Z,71.20
2017-11-07T20:20:13.466Z,71.30
2017-11-07T20:22:40.216Z,71.30
2017-11-07T20:25:06.940Z,71.40
2017-11-07T20:27:33.717Z,71.40
2017-11-07T20:30:00.535Z,71.30
2017-11-07T20:32:27.278Z,71.20
2017-11-07T20:34:54.827Z,72.40
2017-11-07T20:37:21.606Z,71.40
2017-11-07T20:39:48.374Z,71.60
2017-11-07T20:42:15.143Z,71.50
2017-11-07T20:44:42.670Z,71.80
2017-11-07T20:47:09.440Z,71.80
2017-11-07T20:49:36.952Z,72.00
2017-11-07T20:52:04.549Z,72.00
2017-11-07T20:54:31.316Z,71.90
2017-11-07T20:56:58.913Z,72.00
2017-11-07T20:59:25.641Z,71.90
2017-11-07T21:01:52.371Z,72.00
2017-11-07T21:04:19.168Z,72.10
2017-11-07T21:06:45.926Z,72.10
2017-11-07T21:09:13.426Z,72.60
2017-11-07T21:11:40.166Z,72.60
2017-11-07T21:14:06.952Z,72.90
2017-11-07T21:16:34.465Z,73.40
2017-11-07T21:19:01.216Z,73.20
2017-11-07T21:21:28.008Z,73.20
2017-11-07T21:23:55.508Z,73.40
2017-11-07T21:26:22.265Z,73.30
2017-11-07T21:28:49.022Z,73.40
2017-11-07T21:31:15.788Z,73.50
2017-11-07T21:33:42.526Z,73.50
2017-11-07T21:36:09.262Z,73.50
2017-11-07T21:38:36.029Z,73.60
2017-11-07T21:41:02.757Z,73.50
2017-11-07T21:43:29.508Z,73.40
2017-11-07T21:45:56.270Z,73.30
2017-11-07T21:48:23.015Z,73.10
2017-11-07T21:50:49.784Z,73.20
2017-11-07T21:53:16.519Z,73.50
2017-11-07T21:55:44.052Z,73.70
2017-11-07T21:58:10.807Z,73.60
2017-11-07T22:00:38.308Z,74.90
2017-11-07T22:03:05.054Z,73.90
2017-11-07T22:05:31.817Z,73.90
2017-11-07T22:07:58.568Z,74.20
2017-11-07T22:10:25.310Z,74.30
2017-11-07T22:12:52.049Z,74.50
2017-11-07T22:15:19.579Z,74.80
2017-11-07T22:17:46.313Z,74.70
2017-11-07T22:20:13.070Z,74.80
2017-11-07T22:22:39.936Z,74.90
2017-11-07T22:25:07.457Z,74.90
2017-11-07T22:27:34.189Z,74.90
2017-11-07T22:30:00.949Z,75.00
2017-11-07T22:32:27.752Z,75.10
2017-11-07T22:34:55.232Z,75.10
2017-11-07T22:37:21.973Z,75.00
2017-11-07T22:39:48.709Z,75.10
2017-11-07T22:42:15.466Z,75.40
2017-11-07T22:44:42.201Z,75.40
2017-11-07T22:47:10.462Z,75.60
2017-11-07T22:49:37.205Z,75.60
2017-11-07T22:52:03.968Z,75.20
2017-11-07T22:54:30.697Z,75.50
2017-11-07T22:56:57.444Z,75.70
2017-11-07T22:59:24.195Z,76.10
2017-11-07T23:01:50.952Z,76.00
2017-11-07T23:04:17.719Z,75.90
2017-11-07T23:06:44.468Z,75.90
2017-11-07T23:09:11.384Z,75.90
2017-11-07T23:11:38.121Z,75.90
2017-11-07T23:14:04.876Z,75.90
2017-11-07T23:16:31.606Z,75.80
2017-11-07T23:18:58.358Z,75.80
2017-11-07T23:21:25.096Z,75.80
2017-11-07T23:23:51.880Z,75.60
2017-11-07T23:26:18.654Z,76.30
2017-11-07T23:28:46.133Z,75.40
2017-11-07T23:31:12.893Z,75.40
2017-11-07T23:33:39.644Z,75.30
2017-11-07T23:36:06.415Z,75.00
2017-11-07T23:38:33.174Z,75.00
2017-11-07T23:40:59.893Z,75.00
2017-11-07T23:43:26.648Z,74.80
2017-11-07T23:45:53.403Z,74.70
2017-11-07T23:48:20.160Z,74.50
2017-11-07T23:50:46.897Z,74.40
2017-11-07T23:53:13.668Z,74.30
2017-11-07T23:55:41.160Z,74.30
2017-11-07T23:58:07.913Z,74.30
